Time;durP1;ratioP1;P1;durP2;ratioP2;P2;SDS_P1;SDS_P2;PMS_P1;PMS_P2;Temp;Humidity;BMP_temperature;BMP_pressure;BME280_temperature;BME280_humidity;BME280_pressure;Samples;Min_cycle;Max_cycle;Signal;HPM_P1;HPM_P2
2024/01/21 00:50:32;;;;;;;11.40;5.75;;;0.20;99.90;;;;;;5131011;27;20386;-73
2024/01/21 00:52:57;;;;;;;14.45;6.85;;;0.20;99.90;;;;;;5112927;28;20100;-73
2024/01/21 00:55:23;;;;;;;11.18;6.00;;;0.20;99.90;;;;;;5112930;28;20548;-73
2024/01/21 00:57:49;;;;;;;11.75;6.90;;;0.30;99.90;;;;;;5112642;27;20096;-73
2024/01/21 01:00:15;;;;;;;11.10;6.40;;;0.30;99.90;;;;;;5095561;28;20482;-73
2024/01/21 01:02:41;;;;;;;10.93;5.63;;;0.30;99.90;;;;;;5112715;28;20479;-73
2024/01/21 01:05:07;;;;;;;10.85;6.18;;;0.30;99.90;;;;;;5112397;28;20044;-73
2024/01/21 01:07:34;;;;;;;10.20;5.90;;;0.30;99.90;;;;;;5112692;27;20550;-73
2024/01/21 01:10:00;;;;;;;13.25;6.10;;;0.30;99.90;;;;;;5095479;28;20122;-73
2024/01/21 01:12:26;;;;;;;10.77;5.97;;;0.30;99.90;;;;;;5112642;28;20095;-73
2024/01/21 01:14:51;;;;;;;9.93;5.70;;;0.30;99.90;;;;;;5112736;28;20071;-73
2024/01/21 01:17:17;;;;;;;10.13;6.25;;;0.30;99.90;;;;;;5129359;28;20035;-73
2024/01/21 01:19:43;;;;;;;9.48;5.43;;;0.30;99.90;;;;;;5095528;28;20066;-73
2024/01/21 01:22:09;;;;;;;9.93;5.22;;;0.30;99.90;;;;;;5129322;28;20173;-73
2024/01/21 01:24:35;;;;;;;9.18;5.25;;;0.30;99.90;;;;;;5094865;28;20039;-73
2024/01/21 01:27:01;;;;;;;10.55;5.40;;;0.30;99.90;;;;;;5112140;28;20040;-73
2024/01/21 01:29:27;;;;;;;9.55;5.47;;;0.40;99.90;;;;;;5128976;28;20149;-73
2024/01/21 01:31:53;;;;;;;10.10;5.80;;;0.40;99.90;;;;;;5094989;28;20039;-72
2024/01/21 01:34:18;;;;;;;10.50;5.50;;;0.40;99.90;;;;;;5129355;28;20041;-73
2024/01/21 01:36:44;;;;;;;9.73;5.57;;;0.40;99.90;;;;;;5111750;28;20047;-73
2024/01/21 01:39:10;;;;;;;8.55;5.28;;;0.40;99.90;;;;;;5095166;28;20042;-73
2024/01/21 01:41:36;;;;;;;9.57;5.40;;;0.40;99.90;;;;;;5111895;28;20039;-73
2024/01/21 01:44:02;;;;;;;10.38;5.82;;;0.50;99.90;;;;;;5112184;28;20487;-73
2024/01/21 01:46:28;;;;;;;10.13;5.50;;;0.50;99.90;;;;;;5111825;28;20075;-74
2024/01/21 01:48:54;;;;;;;9.13;4.72;;;0.50;99.90;;;;;;5094535;28;20109;-75
2024/01/21 01:51:21;;;;;;;7.68;4.03;;;0.60;99.90;;;;;;5129107;28;20083;-74
2024/01/21 01:53:47;;;;;;;8.38;4.57;;;0.60;99.90;;;;;;5128602;28;20047;-73
2024/01/21 01:56:12;;;;;;;8.55;4.47;;;0.60;99.90;;;;;;5128470;28;20069;-74
2024/01/21 01:58:40;;;;;;;8.68;4.38;;;0.60;99.90;;;;;;5128445;28;20092;-74
2024/01/21 02:01:07;;;;;;;8.88;4.60;;;0.60;99.90;;;;;;5119142;28;20039;-73
2024/01/21 02:03:33;;;;;;;9.25;4.93;;;0.70;99.90;;;;;;5097718;28;20047;-74
2024/01/21 02:05:58;;;;;;;7.25;4.00;;;0.70;99.90;;;;;;5097864;28;20484;-73
2024/01/21 02:08:24;;;;;;;8.55;4.40;;;0.70;99.90;;;;;;5097508;28;20050;-73
2024/01/21 02:10:51;;;;;;;9.32;4.35;;;0.70;99.90;;;;;;5114601;28;20039;-73
2024/01/21 02:13:17;;;;;;;7.90;3.70;;;0.80;99.90;;;;;;5098100;28;20070;-73
2024/01/21 02:15:43;;;;;;;7.72;3.83;;;0.80;99.60;;;;;;5080889;28;20075;-73
2024/01/21 02:18:09;;;;;;;6.85;3.97;;;0.90;98.50;;;;;;5097707;28;20450;-73
2024/01/21 02:20:35;;;;;;;7.82;3.70;;;0.90;99.10;;;;;;5093053;28;20161;-74
2024/01/21 02:23:04;;;;;;;7.97;3.83;;;0.90;98.60;;;;;;5109653;28;20115;-74
2024/01/21 02:25:29;;;;;;;7.63;3.22;;;1.00;97.80;;;;;;5093851;28;20125;-73
2024/01/21 02:27:55;;;;;;;7.60;3.70;;;1.10;97.70;;;;;;5076976;28;20082;-74
2024/01/21 02:30:21;;;;;;;7.95;3.38;;;1.10;97.50;;;;;;5077024;28;20094;-74
2024/01/21 02:32:47;;;;;;;7.28;3.70;;;1.10;97.10;;;;;;5093952;28;20032;-74
2024/01/21 02:35:13;;;;;;;6.43;3.22;;;1.10;96.90;;;;;;5077180;28;20432;-73
2024/01/21 02:37:40;;;;;;;7.43;3.17;;;1.20;96.80;;;;;;5093719;28;20047;-73
2024/01/21 02:40:07;;;;;;;5.90;2.33;;;1.20;95.90;;;;;;5077060;28;20043;-74
2024/01/21 02:42:32;;;;;;;6.57;2.92;;;1.30;95.60;;;;;;5093777;28;20567;-74
2024/01/21 02:44:59;;;;;;;6.65;3.00;;;1.40;95.40;;;;;;5076629;28;20110;-73
2024/01/21 02:47:25;;;;;;;6.20;2.97;;;1.40;95.40;;;;;;5093467;28;20044;-73
2024/01/21 02:49:51;;;;;;;6.35;2.88;;;1.40;95.10;;;;;;5093484;28;20048;-74
2024/01/21 02:52:17;;;;;;;5.97;2.92;;;1.30;94.70;;;;;;5093463;28;20105;-73
2024/01/21 02:54:42;;;;;;;7.20;3.10;;;1.30;94.60;;;;;;5093597;28;20046;-74
2024/01/21 02:57:08;;;;;;;6.70;3.28;;;1.30;95.00;;;;;;5076363;28;20040;-73
2024/01/21 02:59:34;;;;;;;5.97;3.00;;;1.20;95.70;;;;;;5093392;28;20044;-74
2024/01/21 03:02:00;;;;;;;6.05;2.72;;;1.20;96.10;;;;;;5076364;28;20039;-73
2024/01/21 03:04:26;;;;;;;6.10;2.75;;;1.10;95.40;;;;;;5093215;28;20484;-73
2024/01/21 03:06:51;;;;;;;5.68;2.47;;;1.10;95.20;;;;;;5059567;28;20039;-73
2024/01/21 03:09:17;;;;;;;6.03;2.90;;;1.20;95.10;;;;;;5093007;28;20102;-74
2024/01/21 03:11:43;;;;;;;5.97;2.95;;;1.20;95.60;;;;;;5075545;28;20043;-74
2024/01/21 03:14:09;;;;;;;5.80;2.90;;;1.10;95.10;;;;;;5092686;28;20486;-74
2024/01/21 03:16:34;;;;;;;6.25;2.90;;;1.20;95.90;;;;;;5077719;28;20480;-74
2024/01/21 03:19:00;;;;;;;6.15;2.83;;;1.10;96.10;;;;;;5096267;28;20499;-73
2024/01/21 03:21:26;;;;;;;6.70;2.80;;;1.20;96.00;;;;;;5079441;28;20124;-74
2024/01/21 03:23:52;;;;;;;5.30;2.58;;;1.00;95.80;;;;;;5096172;28;20437;-74
2024/01/21 03:26:17;;;;;;;5.78;2.50;;;1.10;95.40;;;;;;5096095;28;20111;-74
2024/01/21 03:28:43;;;;;;;5.07;2.45;;;1.10;95.20;;;;;;5112908;28;20377;-74
2024/01/21 03:31:09;;;;;;;6.35;2.60;;;1.20;94.60;;;;;;5112917;28;20123;-73
2024/01/21 03:33:35;;;;;;;5.85;2.38;;;1.20;94.80;;;;;;5112830;28;20035;-73
2024/01/21 03:36:01;;;;;;;5.10;2.30;;;1.20;94.30;;;;;;5095916;28;20081;-74
2024/01/21 03:38:27;;;;;;;6.10;2.10;;;1.30;94.20;;;;;;5096122;28;20487;-73
2024/01/21 03:40:53;;;;;;;4.97;2.30;;;1.40;93.00;;;;;;5112808;28;20043;-74
2024/01/21 03:43:18;;;;;;;5.30;2.03;;;1.40;93.20;;;;;;5095734;28;20083;-73
2024/01/21 03:45:44;;;;;;;5.35;2.15;;;1.40;92.80;;;;;;5113034;28;20047;-74
2024/01/21 03:48:11;;;;;;;5.22;2.15;;;1.50;92.20;;;;;;5129992;27;20035;-73
2024/01/21 03:50:37;;;;;;;4.55;1.85;;;1.50;92.60;;;;;;5112502;28;20098;-73
2024/01/21 03:53:03;;;;;;;6.97;2.55;;;1.60;91.40;;;;;;5095813;28;20079;-74
2024/01/21 03:55:29;;;;;;;5.07;2.08;;;1.60;92.30;;;;;;5112501;28;20069;-73
2024/01/21 03:57:55;;;;;;;3.83;1.80;;;1.60;92.40;;;;;;5112415;28;20035;-74
2024/01/21 04:00:20;;;;;;;4.78;2.10;;;1.60;91.40;;;;;;5112841;28;20514;-74
2024/01/21 04:02:46;;;;;;;4.82;2.17;;;1.60;91.10;;;;;;5112332;28;20050;-73
2024/01/21 04:05:12;;;;;;;6.43;2.10;;;1.50;91.70;;;;;;5095536;28;20039;-73
2024/01/21 04:07:37;;;;;;;4.90;1.90;;;1.50;91.60;;;;;;5095303;28;20047;-73
2024/01/21 04:10:05;;;;;;;4.78;1.90;;;1.60;90.60;;;;;;5095218;28;20530;-73
2024/01/21 04:12:30;;;;;;;4.35;1.80;;;1.60;91.20;;;;;;5112586;28;20043;-74
2024/01/21 04:14:56;;;;;;;4.57;1.63;;;1.70;90.00;;;;;;5111842;28;20044;-74
2024/01/21 04:17:23;;;;;;;6.43;2.30;;;1.70;90.70;;;;;;5095377;28;20050;-74
2024/01/21 04:19:49;;;;;;;4.40;1.80;;;1.60;91.20;;;;;;5095353;28;20555;-74
2024/01/21 04:22:18;;;;;;;4.80;1.88;;;1.60;90.90;;;;;;5095396;28;20109;-73
2024/01/21 04:24:45;;;;;;;4.57;1.90;;;1.70;90.90;;;;;;5094996;28;20039;-74
2024/01/21 04:27:11;;;;;;;5.80;2.28;;;1.60;91.00;;;;;;5095221;28;20036;-73
2024/01/21 04:29:36;;;;;;;4.72;2.10;;;1.60;91.10;;;;;;5094888;28;20070;-73
2024/01/21 04:32:02;;;;;;;4.40;1.80;;;1.60;91.40;;;;;;5094895;28;20055;-74
2024/01/21 04:34:28;;;;;;;4.88;2.00;;;1.60;90.60;;;;;;5112176;28;20046;-74
2024/01/21 04:36:54;;;;;;;5.72;2.25;;;1.60;90.40;;;;;;5111829;28;20036;-74
2024/01/21 04:39:21;;;;;;;4.70;1.90;;;1.70;91.20;;;;;;5078043;28;20093;-74
2024/01/21 04:41:48;;;;;;;4.70;2.20;;;1.60;91.40;;;;;;5111803;28;20050;-74
2024/01/21 04:44:13;;;;;;;4.50;1.83;;;1.50;91.70;;;;;;5111910;28;20078;-74
2024/01/21 04:46:39;;;;;;;4.53;1.90;;;1.60;90.80;;;;;;5094989;28;20499;-74
2024/01/21 04:49:05;;;;;;;4.30;1.70;;;1.70;89.50;;;;;;5111440;28;20051;-74
2024/01/21 04:51:31;;;;;;;4.28;1.80;;;1.70;91.00;;;;;;5111733;28;20425;-74
2024/01/21 04:53:57;;;;;;;3.60;1.50;;;1.70;90.10;;;;;;5111623;28;20046;-74
2024/01/21 04:56:22;;;;;;;5.20;1.90;;;1.80;90.10;;;;;;5094787;28;20044;-74
2024/01/21 04:58:48;;;;;;;4.95;1.85;;;1.70;90.30;;;;;;5111672;28;20062;-74
2024/01/21 05:01:16;;;;;;;4.40;1.80;;;1.60;90.00;;;;;;5111725;28;20075;-74
2024/01/21 05:03:42;;;;;;;4.07;1.50;;;1.80;90.40;;;;;;5111983;28;20487;-74
2024/01/21 05:06:07;;;;;;;4.03;1.60;;;1.70;90.00;;;;;;5128900;28;20069;-73
2024/01/21 05:08:34;;;;;;;4.80;1.77;;;1.70;89.60;;;;;;5111496;28;20061;-73
2024/01/21 05:11:00;;;;;;;4.75;1.80;;;1.70;89.00;;;;;;5111628;28;20036;-73
2024/01/21 05:13:25;;;;;;;5.13;1.90;;;1.80;87.40;;;;;;5094831;28;20040;-73
2024/01/21 05:15:51;;;;;;;6.22;2.22;;;1.80;88.00;;;;;;5128983;28;20067;-73
2024/01/21 05:18:19;;;;;;;4.53;1.88;;;1.80;88.70;;;;;;5111445;28;20038;-73
2024/01/21 05:20:45;;;;;;;4.35;1.80;;;1.70;89.20;;;;;;5111428;28;20068;-73
2024/01/21 05:23:11;;;;;;;5.18;1.80;;;1.60;89.60;;;;;;5094639;28;20425;-74
2024/01/21 05:25:37;;;;;;;5.47;1.85;;;1.60;90.00;;;;;;5111334;28;20036;-74
2024/01/21 05:28:03;;;;;;;4.30;1.83;;;1.60;90.00;;;;;;5094328;28;20502;-74
2024/01/21 05:30:29;;;;;;;4.55;1.90;;;1.60;90.00;;;;;;5111322;28;20036;-73
2024/01/21 05:32:54;;;;;;;5.28;1.85;;;1.60;89.90;;;;;;5111284;28;20040;-74
2024/01/21 05:35:22;;;;;;;4.38;1.67;;;1.50;90.50;;;;;;5078489;28;20388;-74
2024/01/21 05:37:48;;;;;;;4.60;2.00;;;1.50;90.30;;;;;;5098332;28;20044;-74
2024/01/21 05:40:14;;;;;;;4.30;1.85;;;1.50;90.00;;;;;;5115601;28;20089;-73
2024/01/21 05:42:40;;;;;;;4.97;2.15;;;1.50;90.10;;;;;;5115183;28;20043;-73
2024/01/21 05:45:07;;;;;;;4.30;2.00;;;1.60;89.30;;;;;;5115372;28;20486;-74
2024/01/21 05:47:33;;;;;;;5.05;2.00;;;1.60;87.90;;;;;;5115148;28;20575;-74
2024/01/21 05:49:59;;;;;;;5.32;2.10;;;1.60;89.60;;;;;;5097797;28;20126;-74
2024/01/21 05:52:25;;;;;;;4.50;1.95;;;1.70;90.70;;;;;;5115204;28;20047;-74
2024/01/21 05:54:50;;;;;;;5.00;1.98;;;1.70;90.00;;;;;;5115198;28;20043;-74
2024/01/21 05:57:16;;;;;;;6.35;2.30;;;1.70;90.60;;;;;;5097791;28;20035;-74
2024/01/21 05:59:42;;;;;;;4.85;1.98;;;1.70;91.10;;;;;;5097904;28;20044;-75
2024/01/21 06:02:10;;;;;;;4.68;1.85;;;1.80;90.00;;;;;;5097827;28;20043;-74
2024/01/21 06:04:36;;;;;;;4.60;1.98;;;1.90;89.90;;;;;;5114959;28;20043;-74
2024/01/21 06:07:02;;;;;;;5.38;2.38;;;2.00;90.10;;;;;;5086734;28;20039;-74
2024/01/21 06:09:28;;;;;;;4.07;1.60;;;2.00;90.00;;;;;;5094274;28;20043;-74
2024/01/21 06:11:53;;;;;;;4.90;2.13;;;2.10;89.20;;;;;;5077308;28;20036;-74
2024/01/21 06:14:19;;;;;;;5.32;2.30;;;2.20;89.20;;;;;;5094388;28;20048;-75
2024/01/21 06:16:45;;;;;;;4.72;2.20;;;2.10;91.00;;;;;;5077454;28;20086;-74
2024/01/21 06:19:10;;;;;;;6.05;2.53;;;2.20;90.20;;;;;;5094008;28;20074;-74
2024/01/21 06:21:43;;;;;;;5.93;2.70;;;2.30;90.80;;;;;;5094043;28;20465;-74
2024/01/21 06:24:12;;;;;;;6.95;2.90;;;2.30;90.00;;;;;;5094342;28;20040;-74
2024/01/21 06:26:40;;;;;;;5.35;2.65;;;2.30;89.90;;;;;;5077272;28;20047;-74
2024/01/21 06:29:09;;;;;;;5.68;2.58;;;2.30;90.00;;;;;;5093815;28;20071;-74
2024/01/21 06:31:35;;;;;;;6.40;2.80;;;2.30;90.30;;;;;;5094067;28;20039;-74
2024/01/21 06:34:01;;;;;;;6.20;2.75;;;2.50;90.60;;;;;;5077559;28;20447;-74
2024/01/21 06:36:27;;;;;;;6.53;3.00;;;2.30;91.30;;;;;;5093582;28;20097;-74
2024/01/21 06:38:52;;;;;;;6.65;3.08;;;2.30;91.00;;;;;;5076870;28;20414;-75
2024/01/21 06:41:18;;;;;;;6.55;3.00;;;2.30;91.50;;;;;;5093646;28;20043;-74
2024/01/21 06:43:44;;;;;;;6.93;2.95;;;2.30;90.90;;;;;;5093880;28;20048;-75
2024/01/21 06:46:10;;;;;;;6.93;3.15;;;2.30;91.00;;;;;;5077098;28;20043;-75
2024/01/21 06:48:36;;;;;;;6.63;3.60;;;2.20;91.40;;;;;;5093610;28;20036;-75
2024/01/21 06:51:10;;;;;;;6.07;3.33;;;2.30;92.00;;;;;;5106418;28;20122;-75
2024/01/21 06:53:37;;;;;;;7.13;3.50;;;2.20;92.30;;;;;;5113102;28;20042;-74
2024/01/21 06:56:07;;;;;;;6.22;3.47;;;2.20;92.60;;;;;;5080216;28;20121;-75
2024/01/21 06:58:36;;;;;;;7.13;3.78;;;2.20;92.60;;;;;;5097581;28;20035;-75
2024/01/21 07:01:02;;;;;;;8.40;3.35;;;2.20;93.20;;;;;;5113885;28;20081;-75
2024/01/21 07:03:28;;;;;;;7.15;3.35;;;2.20;92.20;;;;;;5113484;28;20061;-74
2024/01/21 07:05:54;;;;;;;8.15;3.70;;;2.20;92.50;;;;;;5096432;28;20126;-74
2024/01/21 07:08:20;;;;;;;7.72;3.70;;;2.10;92.80;;;;;;5079968;28;20040;-75
2024/01/21 07:10:46;;;;;;;8.07;3.58;;;2.20;92.80;;;;;;5113339;28;20040;-75
2024/01/21 07:13:11;;;;;;;7.85;4.13;;;2.20;93.00;;;;;;5113427;28;20480;-75
2024/01/21 07:15:38;;;;;;;7.40;4.00;;;2.20;93.10;;;;;;5096379;28;20544;-75
2024/01/21 07:18:06;;;;;;;8.35;4.40;;;2.10;93.30;;;;;;5096385;28;20385;-75
2024/01/21 07:20:33;;;;;;;8.07;4.53;;;2.10;93.50;;;;;;5113269;28;20051;-75
2024/01/21 07:22:58;;;;;;;8.80;4.50;;;2.10;94.00;;;;;;5113526;28;20055;-75
2024/01/21 07:25:24;;;;;;;8.63;3.75;;;2.10;94.30;;;;;;5096125;28;20044;-74
2024/01/21 07:27:50;;;;;;;10.57;4.43;;;2.10;94.20;;;;;;5113515;28;20505;-75
2024/01/21 07:30:17;;;;;;;8.75;4.70;;;2.00;94.50;;;;;;5106063;28;20047;-75
2024/01/21 07:32:43;;;;;;;7.90;4.07;;;2.10;94.90;;;;;;5136802;28;20103;-74
2024/01/21 07:35:09;;;;;;;10.00;3.97;;;2.00;94.40;;;;;;5115728;28;20078;-75
2024/01/21 07:37:35;;;;;;;8.35;4.30;;;2.00;94.10;;;;;;5114081;28;20535;-74
2024/01/21 07:40:02;;;;;;;8.75;4.20;;;2.10;94.40;;;;;;5121803;28;20436;-74
2024/01/21 07:42:28;;;;;;;8.57;4.80;;;2.00;95.30;;;;;;5125687;28;20058;-73
2024/01/21 07:44:54;;;;;;;10.40;5.88;;;2.00;95.50;;;;;;5127828;28;20043;-74
2024/01/21 07:47:19;;;;;;;8.52;5.18;;;1.90;95.80;;;;;;5127459;28;20036;-73
2024/01/21 07:49:46;;;;;;;8.57;4.50;;;2.00;96.50;;;;;;5127504;28;20105;-73
2024/01/21 07:52:12;;;;;;;9.70;5.38;;;1.90;96.10;;;;;;5109659;28;20527;-73
2024/01/21 07:54:38;;;;;;;9.60;5.18;;;1.90;96.40;;;;;;5090644;28;20059;-73
2024/01/21 07:57:05;;;;;;;8.90;5.10;;;1.90;96.50;;;;;;5118696;28;20039;-74
2024/01/21 07:59:30;;;;;;;9.48;5.55;;;1.90;96.50;;;;;;5124013;28;20035;-74
2024/01/21 08:01:56;;;;;;;9.48;5.55;;;2.60;96.40;;;;;;5114483;28;20065;-74
2024/01/21 08:04:22;;;;;;;10.35;6.25;;;1.90;96.40;;;;;;5082370;28;20044;-73
2024/01/21 08:06:48;;;;;;;8.48;4.90;;;1.90;96.40;;;;;;5046410;28;20076;-74
2024/01/21 08:09:15;;;;;;;8.77;4.93;;;1.90;96.60;;;;;;5082276;28;20079;-75
2024/01/21 08:11:41;;;;;;;9.85;5.50;;;1.90;96.50;;;;;;5078187;28;20052;-74
2024/01/21 08:14:07;;;;;;;8.82;5.10;;;2.00;97.30;;;;;;5093226;28;20036;-75
2024/01/21 08:16:33;;;;;;;11.35;6.18;;;1.90;96.60;;;;;;5093536;28;20101;-75
2024/01/21 08:18:58;;;;;;;9.82;4.95;;;1.90;97.10;;;;;;5093398;28;20513;-74
2024/01/21 08:21:24;;;;;;;9.75;5.22;;;1.90;97.30;;;;;;5092798;28;20044;-75
2024/01/21 08:23:50;;;;;;;10.05;6.15;;;1.90;97.70;;;;;;5092459;28;20109;-75
2024/01/21 08:26:16;;;;;;;8.70;5.07;;;2.30;98.30;;;;;;5092385;28;20048;-75
2024/01/21 08:28:42;;;;;;;9.38;5.55;;;1.90;98.30;;;;;;5075011;28;20036;-75
2024/01/21 08:31:08;;;;;;;8.23;5.20;;;2.00;98.60;;;;;;5075178;28;20043;-75
2024/01/21 08:33:36;;;;;;;11.27;5.05;;;1.90;98.70;;;;;;5074737;28;20044;-75
2024/01/21 08:36:03;;;;;;;11.43;5.68;;;1.90;98.50;;;;;;5091763;28;20047;-74
2024/01/21 08:38:29;;;;;;;10.18;5.93;;;1.90;98.10;;;;;;5091841;28;20061;-74
2024/01/21 08:40:54;;;;;;;10.70;5.55;;;2.00;98.40;;;;;;5091994;28;20032;-72
2024/01/21 08:43:20;;;;;;;11.18;6.20;;;2.00;98.30;;;;;;5091564;28;20043;-73
2024/01/21 08:45:46;;;;;;;11.65;5.70;;;2.10;98.90;;;;;;5091516;28;20048;-72
2024/01/21 08:48:12;;;;;;;9.57;5.57;;;2.10;99.00;;;;;;5091499;28;20055;-72
2024/01/21 08:50:39;;;;;;;9.23;5.40;;;2.20;98.30;;;;;;5091266;28;20162;-73
2024/01/21 08:53:04;;;;;;;10.90;5.82;;;2.20;98.40;;;;;;5108572;28;20048;-73
2024/01/21 08:55:30;;;;;;;9.68;5.65;;;2.20;98.30;;;;;;5091337;28;20089;-72
2024/01/21 08:57:56;;;;;;;9.82;5.32;;;2.20;99.00;;;;;;5091489;28;20047;-73
2024/01/21 09:00:22;;;;;;;9.68;5.78;;;2.10;98.20;;;;;;5058067;28;20077;-72
2024/01/21 09:02:48;;;;;;;9.07;5.30;;;2.20;99.00;;;;;;5074454;28;20492;-72
2024/01/21 09:05:13;;;;;;;9.20;5.20;;;2.20;99.10;;;;;;5074501;28;20044;-73
2024/01/21 09:07:39;;;;;;;9.20;5.82;;;2.20;98.70;;;;;;5074434;28;20102;-72
2024/01/21 09:10:07;;;;;;;9.40;5.90;;;2.20;99.00;;;;;;5091341;28;20036;-73
2024/01/21 09:12:33;;;;;;;8.70;5.00;;;2.30;98.50;;;;;;5095334;28;20040;-73
2024/01/21 09:14:59;;;;;;;9.30;5.43;;;2.30;99.20;;;;;;5061680;28;20040;-72
2024/01/21 09:17:25;;;;;;;11.30;6.70;;;2.30;99.20;;;;;;5078404;28;20036;-74
2024/01/21 09:19:51;;;;;;;11.13;5.85;;;2.30;98.90;;;;;;5095519;28;20063;-73
2024/01/21 09:22:17;;;;;;;10.00;5.43;;;2.40;99.10;;;;;;5061710;28;20071;-72
2024/01/21 09:24:43;;;;;;;10.68;6.20;;;2.40;99.50;;;;;;5061573;28;20048;-72
2024/01/21 09:27:08;;;;;;;8.35;4.22;;;2.50;99.40;;;;;;5094978;28;20051;-72
2024/01/21 09:29:34;;;;;;;10.07;5.47;;;2.40;99.50;;;;;;5078035;28;20036;-72
2024/01/21 09:32:00;;;;;;;9.43;5.78;;;2.50;99.90;;;;;;5094916;28;20387;-72
2024/01/21 09:34:26;;;;;;;9.85;5.90;;;2.50;99.50;;;;;;5061321;28;20094;-72
2024/01/21 09:36:52;;;;;;;10.93;5.28;;;2.50;99.60;;;;;;5077945;28;20032;-72
2024/01/21 09:39:18;;;;;;;8.90;5.03;;;2.60;99.80;;;;;;5095000;28;20082;-72
2024/01/21 09:41:52;;;;;;;10.35;6.10;;;2.60;99.80;;;;;;5095079;28;20040;-72
2024/01/21 09:44:26;;;;;;;9.98;5.80;;;2.50;99.90;;;;;;5077940;28;20047;-72
2024/01/21 09:46:57;;;;;;;9.60;5.20;;;2.50;99.90;;;;;;5094669;28;20130;-74
2024/01/21 09:49:24;;;;;;;8.98;5.32;;;2.60;99.90;;;;;;5077695;28;20080;-73
2024/01/21 09:51:50;;;;;;;10.25;5.90;;;2.50;99.90;;;;;;5088381;28;20044;-72
2024/01/21 09:54:17;;;;;;;11.20;6.10;;;2.50;99.90;;;;;;5111767;28;20542;-73
2024/01/21 09:56:43;;;;;;;10.90;6.00;;;2.50;99.90;;;;;;5094388;28;20073;-73
2024/01/21 09:59:10;;;;;;;9.38;5.47;;;2.60;99.90;;;;;;5094436;28;20047;-73
2024/01/21 10:01:40;;;;;;;14.13;5.72;;;2.70;99.90;;;;;;5094574;28;20043;-73
2024/01/21 10:04:07;;;;;;;9.63;5.95;;;2.70;99.90;;;;;;5094549;28;20040;-73
2024/01/21 10:06:34;;;;;;;10.68;5.65;;;2.70;99.90;;;;;;5094161;28;20077;-73
2024/01/21 10:09:16;;;;;;;9.77;6.05;;;2.80;99.90;;;;;;5094211;28;20044;-73
2024/01/21 10:11:43;;;;;;;11.77;6.20;;;2.80;99.90;;;;;;5111484;28;20040;-73
2024/01/21 10:14:10;;;;;;;9.52;5.45;;;2.80;99.90;;;;;;5094196;28;20109;-73
2024/01/21 10:16:40;;;;;;;9.32;5.35;;;2.90;99.90;;;;;;5094261;28;20039;-73
2024/01/21 10:19:06;;;;;;;9.40;5.80;;;3.00;99.90;;;;;;5094344;28;20046;-73
2024/01/21 10:21:32;;;;;;;10.98;6.40;;;3.00;99.90;;;;;;5093543;28;20131;-73
2024/01/21 10:24:01;;;;;;;9.13;5.50;;;2.90;99.90;;;;;;5094257;28;20075;-73
2024/01/21 10:26:27;;;;;;;10.77;6.10;;;3.00;99.90;;;;;;5094061;28;20075;-73
2024/01/21 10:28:54;;;;;;;9.95;6.00;;;2.90;99.90;;;;;;5093811;28;20102;-73
2024/01/21 10:31:20;;;;;;;10.80;5.80;;;2.90;99.90;;;;;;5093927;28;20036;-73
2024/01/21 10:33:47;;;;;;;11.05;6.20;;;3.00;99.90;;;;;;5093801;28;20146;-73
2024/01/21 10:36:14;;;;;;;7.95;4.95;;;3.00;99.90;;;;;;5093710;28;20079;-73
2024/01/21 10:38:50;;;;;;;9.88;6.25;;;3.00;99.90;;;;;;5110803;28;20094;-73
2024/01/21 10:41:31;;;;;;;9.20;5.85;;;3.00;99.90;;;;;;5110951;28;20044;-72
2024/01/21 10:43:59;;;;;;;9.65;5.50;;;3.00;99.90;;;;;;5093928;28;20496;-73
2024/01/21 10:46:25;;;;;;;10.85;6.30;;;3.00;99.90;;;;;;5094132;28;20040;-73
2024/01/21 10:48:57;;;;;;;10.18;6.43;;;3.00;99.90;;;;;;5095040;28;20118;-73
2024/01/21 10:51:23;;;;;;;10.32;6.00;;;3.00;99.90;;;;;;5113975;28;20101;-73
2024/01/21 10:53:53;;;;;;;9.88;6.28;;;3.00;99.90;;;;;;5113981;28;20047;-73
2024/01/21 10:56:20;;;;;;;10.60;6.25;;;3.00;99.90;;;;;;5097143;28;20376;-74
2024/01/21 10:58:49;;;;;;;10.10;6.22;;;3.00;99.90;;;;;;5113836;28;20476;-74
2024/01/21 11:01:16;;;;;;;9.18;5.63;;;3.00;99.90;;;;;;5113665;28;20044;-74
2024/01/21 11:03:43;;;;;;;10.60;5.82;;;3.30;99.90;;;;;;5113562;28;20054;-73
2024/01/21 11:06:11;;;;;;;10.52;6.40;;;3.10;99.90;;;;;;5113768;28;20800;-74
2024/01/21 11:08:40;;;;;;;10.30;5.78;;;3.10;99.90;;;;;;5096493;28;20043;-73
2024/01/21 11:11:09;;;;;;;10.65;6.32;;;3.10;99.90;;;;;;5113395;28;20076;-72
2024/01/21 11:13:50;;;;;;;9.00;5.78;;;3.10;99.90;;;;;;5113671;28;20360;-73
2024/01/21 11:16:25;;;;;;;12.57;6.80;;;3.10;99.90;;;;;;5113389;28;20047;-73
2024/01/21 11:19:11;;;;;;;10.35;5.90;;;3.10;99.90;;;;;;5096408;28;20044;-73
2024/01/21 11:21:42;;;;;;;9.13;5.78;;;3.20;99.90;;;;;;5112547;28;20047;-72
2024/01/21 11:24:13;;;;;;;10.93;6.53;;;3.20;99.90;;;;;;5113148;28;20075;-72
2024/01/21 11:26:45;;;;;;;10.02;5.53;;;3.20;99.90;;;;;;5096242;28;20055;-72
2024/01/21 11:29:33;;;;;;;10.48;6.78;;;3.20;99.90;;;;;;5096516;28;20107;-72
2024/01/21 11:32:08;;;;;;;10.82;6.20;;;3.60;99.90;;;;;;5096338;28;20483;-72
2024/01/21 11:34:38;;;;;;;10.27;5.95;;;3.30;99.90;;;;;;5112238;28;20040;-72
2024/01/21 11:37:09;;;;;;;11.18;6.32;;;3.20;99.90;;;;;;5113262;28;20369;-72
2024/01/21 11:39:36;;;;;;;10.77;6.32;;;3.30;99.90;;;;;;5112904;28;20043;-73
2024/01/21 11:42:05;;;;;;;10.48;6.45;;;3.20;99.90;;;;;;5095857;28;20040;-72
2024/01/21 11:44:32;;;;;;;10.98;6.85;;;3.30;99.90;;;;;;5107162;28;20403;-72
2024/01/21 11:47:04;;;;;;;10.27;5.72;;;3.20;99.90;;;;;;5112621;28;20043;-72
2024/01/21 11:49:35;;;;;;;12.30;6.78;;;3.20;99.90;;;;;;5112661;28;20051;-72
2024/01/21 11:52:06;;;;;;;11.37;7.23;;;3.20;99.90;;;;;;5112900;28;20036;-72
2024/01/21 11:54:36;;;;;;;11.48;6.63;;;3.20;99.90;;;;;;5079811;28;20067;-72
2024/01/21 11:57:02;;;;;;;10.18;6.22;;;3.20;99.90;;;;;;5112409;28;20040;-72
2024/01/21 11:59:30;;;;;;;10.68;7.28;;;3.20;99.90;;;;;;5112577;28;20127;-72
2024/01/21 12:01:57;;;;;;;11.02;6.65;;;3.10;99.90;;;;;;5095730;28;20479;-73
2024/01/21 12:04:24;;;;;;;11.13;6.88;;;3.00;99.90;;;;;;5112420;28;20105;-73
2024/01/21 12:06:52;;;;;;;11.10;7.03;;;3.00;99.90;;;;;;5112529;28;20483;-72
2024/01/21 12:09:19;;;;;;;10.90;6.95;;;3.00;99.90;;;;;;5095727;28;20040;-72
2024/01/21 12:11:47;;;;;;;11.10;7.07;;;3.00;99.90;;;;;;5112532;28;20495;-72
2024/01/21 12:14:13;;;;;;;11.13;7.03;;;3.00;99.90;;;;;;5112553;28;20126;-72
2024/01/21 12:16:40;;;;;;;11.00;6.93;;;3.10;99.90;;;;;;5095402;28;20035;-72
2024/01/21 12:19:06;;;;;;;13.15;7.53;;;3.10;99.90;;;;;;5112123;28;20086;-73
2024/01/21 12:21:32;;;;;;;11.75;6.57;;;3.10;99.90;;;;;;5112162;28;20043;-72
2024/01/21 12:24:02;;;;;;;11.82;7.18;;;3.10;99.90;;;;;;5095397;28;20095;-73
2024/01/21 12:26:28;;;;;;;11.15;6.93;;;3.10;99.90;;;;;;5112279;28;20384;-72
2024/01/21 12:29:09;;;;;;;9.75;6.97;;;3.20;99.90;;;;;;5095285;28;20050;-72
2024/01/21 12:31:41;;;;;;;11.95;7.03;;;3.20;99.90;;;;;;5096892;28;20039;-72
2024/01/21 12:34:09;;;;;;;9.55;6.10;;;3.20;99.90;;;;;;5111851;28;20039;-72
2024/01/21 12:36:44;;;;;;;10.32;5.20;;;3.30;99.90;;;;;;5095281;28;20039;-72
2024/01/21 12:39:11;;;;;;;9.45;6.20;;;3.30;99.90;;;;;;5095204;28;20039;-72
2024/01/21 12:41:37;;;;;;;10.55;6.40;;;3.40;99.90;;;;;;5093330;28;20076;-72
2024/01/21 12:44:03;;;;;;;12.00;7.25;;;3.40;99.90;;;;;;5111822;28;20044;-72
2024/01/21 12:46:30;;;;;;;12.77;7.50;;;3.40;99.90;;;;;;5078383;28;20122;-72
2024/01/21 12:48:56;;;;;;;11.48;7.10;;;3.40;99.90;;;;;;5111427;28;20047;-72
2024/01/21 12:51:22;;;;;;;11.48;6.80;;;3.40;99.90;;;;;;5094949;28;20047;-72
2024/01/21 12:53:50;;;;;;;10.82;6.75;;;3.40;99.90;;;;;;5078258;28;20042;-72
2024/01/21 12:56:17;;;;;;;13.70;7.40;;;3.50;99.90;;;;;;5095006;28;20561;-72
2024/01/21 12:58:43;;;;;;;10.60;6.30;;;3.50;99.90;;;;;;5094916;28;20043;-71
2024/01/21 13:01:10;;;;;;;13.25;7.22;;;3.40;99.90;;;;;;5111901;28;20039;-72
2024/01/21 13:03:36;;;;;;;10.52;6.55;;;3.50;99.90;;;;;;5095001;28;20047;-71
2024/01/21 13:06:06;;;;;;;12.38;7.55;;;3.50;99.90;;;;;;5111839;28;20518;-72
2024/01/21 13:08:33;;;;;;;12.43;7.47;;;3.50;99.90;;;;;;5078569;28;20027;-72
2024/01/21 13:10:59;;;;;;;11.60;7.45;;;3.50;99.90;;;;;;5111799;28;20046;-71
2024/01/21 13:13:27;;;;;;;13.10;7.60;;;3.50;99.90;;;;;;5111507;28;20088;-71
2024/01/21 13:15:54;;;;;;;12.35;7.53;;;3.50;99.90;;;;;;5111724;28;20282;-72
2024/01/21 13:18:20;;;;;;;12.95;8.15;;;3.50;99.90;;;;;;5111739;28;20042;-71
2024/01/21 13:20:46;;;;;;;13.98;8.25;;;3.50;99.90;;;;;;5111507;28;20040;-71
2024/01/21 13:23:12;;;;;;;13.38;7.57;;;3.60;99.90;;;;;;5094839;28;20092;-71
2024/01/21 13:25:38;;;;;;;11.98;7.68;;;3.50;99.90;;;;;;5094994;28;20047;-72
2024/01/21 13:30:50;;;;;;;13.32;7.95;;;3.70;99.90;;;;;;5111358;28;20044;-72
2024/01/21 13:33:34;;;;;;;11.80;6.93;;;3.70;99.90;;;;;;5111535;28;20407;-72
2024/01/21 13:36:00;;;;;;;13.20;8.18;;;3.70;99.90;;;;;;5075906;28;20028;-72
2024/01/21 13:38:32;;;;;;;12.43;7.20;;;3.70;99.90;;;;;;5094710;28;20136;-71
2024/01/21 13:41:01;;;;;;;14.00;8.43;;;3.70;99.90;;;;;;5111553;28;20492;-71
2024/01/21 13:43:27;;;;;;;14.60;8.45;;;3.70;99.90;;;;;;5094630;28;20036;-71